sensor_id;sensor_type;location;lat;lon;timestamp;P1;durP1;ratioP1;P2;durP2;ratioP2
10645;SDS011;5371;49.782;9.932;2023-12-20T00:02:19;11.50;;;7.03;;
10645;SDS011;5371;49.782;9.932;2023-12-20T00:04:46;9.53;;;7.03;;
10645;SDS011;5371;49.782;9.932;2023-12-20T00:07:13;9.27;;;7.17;;
10645;SDS011;5371;49.782;9.932;2023-12-20T00:09:40;11.57;;;6.63;;
10645;SDS011;5371;49.782;9.932;2023-12-20T00:12:07;10.57;;;6.67;;
10645;SDS011;5371;49.782;9.932;2023-12-20T00:14:35;8.77;;;6.27;;
10645;SDS011;5371;49.782;9.932;2023-12-20T00:17:03;10.87;;;7.10;;
10645;SDS011;5371;49.782;9.932;2023-12-20T00:19:30;10.03;;;6.80;;
10645;SDS011;5371;49.782;9.932;2023-12-20T00:21:57;9.37;;;6.70;;
10645;SDS011;5371;49.782;9.932;2023-12-20T00:24:24;8.80;;;6.17;;
10645;SDS011;5371;49.782;9.932;2023-12-20T00:26:51;7.27;;;5.80;;
10645;SDS011;5371;49.782;9.932;2023-12-20T00:29:18;7.77;;;5.73;;
10645;SDS011;5371;49.782;9.932;2023-12-20T00:31:45;8.20;;;5.17;;
10645;SDS011;5371;49.782;9.932;2023-12-20T00:34:14;6.73;;;5.10;;
10645;SDS011;5371;49.782;9.932;2023-12-20T00:36:41;5.67;;;4.50;;
10645;SDS011;5371;49.782;9.932;2023-12-20T00:39:07;5.13;;;3.80;;
10645;SDS011;5371;49.782;9.932;2023-12-20T00:41:34;5.37;;;3.73;;
10645;SDS011;5371;49.782;9.932;2023-12-20T00:44:01;5.43;;;4.20;;
10645;SDS011;5371;49.782;9.932;2023-12-20T00:46:28;5.37;;;3.30;;
10645;SDS011;5371;49.782;9.932;2023-12-20T00:48:55;4.23;;;3.00;;
10645;SDS011;5371;49.782;9.932;2023-12-20T00:51:23;5.47;;;3.10;;
10645;SDS011;5371;49.782;9.932;2023-12-20T00:53:50;6.67;;;3.50;;
10645;SDS011;5371;49.782;9.932;2023-12-20T00:56:20;4.90;;;3.30;;
10645;SDS011;5371;49.782;9.932;2023-12-20T00:58:47;4.23;;;2.93;;
10645;SDS011;5371;49.782;9.932;2023-12-20T01:01:14;5.77;;;3.80;;
10645;SDS011;5371;49.782;9.932;2023-12-20T01:03:42;3.03;;;2.10;;
10645;SDS011;5371;49.782;9.932;2023-12-20T01:06:09;2.30;;;2.00;;
10645;SDS011;5371;49.782;9.932;2023-12-20T01:08:38;2.27;;;1.93;;
10645;SDS011;5371;49.782;9.932;2023-12-20T01:11:05;2.73;;;1.97;;
10645;SDS011;5371;49.782;9.932;2023-12-20T01:13:32;2.13;;;1.70;;
10645;SDS011;5371;49.782;9.932;2023-12-20T01:15:59;2.00;;;1.80;;
10645;SDS011;5371;49.782;9.932;2023-12-20T01:18:26;1.70;;;1.57;;
10645;SDS011;5371;49.782;9.932;2023-12-20T01:20:53;1.20;;;1.10;;
10645;SDS011;5371;49.782;9.932;2023-12-20T01:23:20;1.57;;;1.10;;
10645;SDS011;5371;49.782;9.932;2023-12-20T01:25:49;1.47;;;1.10;;
10645;SDS011;5371;49.782;9.932;2023-12-20T01:28:16;1.00;;;0.90;;
10645;SDS011;5371;49.782;9.932;2023-12-20T01:30:42;1.20;;;1.00;;
10645;SDS011;5371;49.782;9.932;2023-12-20T01:33:11;1.73;;;1.00;;
10645;SDS011;5371;49.782;9.932;2023-12-20T01:35:37;1.20;;;0.90;;
10645;SDS011;5371;49.782;9.932;2023-12-20T01:38:04;0.90;;;0.77;;
10645;SDS011;5371;49.782;9.932;2023-12-20T01:40:32;0.70;;;0.70;;
10645;SDS011;5371;49.782;9.932;2023-12-20T01:43:01;0.80;;;0.70;;
10645;SDS011;5371;49.782;9.932;2023-12-20T01:45:28;1.70;;;0.60;;
10645;SDS011;5371;49.782;9.932;2023-12-20T01:47:55;1.77;;;1.13;;
10645;SDS011;5371;49.782;9.932;2023-12-20T01:50:23;1.67;;;1.00;;
10645;SDS011;5371;49.782;9.932;2023-12-20T01:52:50;0.80;;;0.80;;
10645;SDS011;5371;49.782;9.932;2023-12-20T01:55:21;0.70;;;0.70;;
10645;SDS011;5371;49.782;9.932;2023-12-20T01:57:48;1.10;;;0.67;;
10645;SDS011;5371;49.782;9.932;2023-12-20T02:00:17;0.70;;;0.70;;
10645;SDS011;5371;49.782;9.932;2023-12-20T02:02:48;0.67;;;0.60;;
10645;SDS011;5371;49.782;9.932;2023-12-20T02:05:16;1.73;;;0.70;;
10645;SDS011;5371;49.782;9.932;2023-12-20T02:07:43;1.30;;;0.63;;
10645;SDS011;5371;49.782;9.932;2023-12-20T02:10:10;0.60;;;0.50;;
10645;SDS011;5371;49.782;9.932;2023-12-20T02:12:37;0.70;;;0.70;;
10645;SDS011;5371;49.782;9.932;2023-12-20T02:15:04;0.67;;;0.60;;
10645;SDS011;5371;49.782;9.932;2023-12-20T02:17:34;0.73;;;0.70;;
10645;SDS011;5371;49.782;9.932;2023-12-20T02:20:01;0.73;;;0.73;;
10645;SDS011;5371;49.782;9.932;2023-12-20T02:22:29;1.33;;;0.90;;
10645;SDS011;5371;49.782;9.932;2023-12-20T02:24:56;0.60;;;0.60;;
10645;SDS011;5371;49.782;9.932;2023-12-20T02:27:23;0.77;;;0.77;;
10645;SDS011;5371;49.782;9.932;2023-12-20T02:29:50;1.00;;;0.87;;
10645;SDS011;5371;49.782;9.932;2023-12-20T02:32:17;0.80;;;0.80;;
10645;SDS011;5371;49.782;9.932;2023-12-20T02:34:46;0.73;;;0.70;;
10645;SDS011;5371;49.782;9.932;2023-12-20T02:37:14;0.70;;;0.63;;
10645;SDS011;5371;49.782;9.932;2023-12-20T02:39:42;1.17;;;0.70;;
10645;SDS011;5371;49.782;9.932;2023-12-20T02:42:09;0.83;;;0.77;;
10645;SDS011;5371;49.782;9.932;2023-12-20T02:44:36;0.67;;;0.63;;
10645;SDS011;5371;49.782;9.932;2023-12-20T02:47:03;0.73;;;0.73;;
10645;SDS011;5371;49.782;9.932;2023-12-20T02:49:30;1.43;;;0.70;;
10645;SDS011;5371;49.782;9.932;2023-12-20T02:51:57;1.10;;;0.80;;
10645;SDS011;5371;49.782;9.932;2023-12-20T02:54:24;0.80;;;0.80;;
10645;SDS011;5371;49.782;9.932;2023-12-20T02:56:52;0.70;;;0.70;;
10645;SDS011;5371;49.782;9.932;2023-12-20T02:59:19;0.63;;;0.63;;
10645;SDS011;5371;49.782;9.932;2023-12-20T03:01:46;0.60;;;0.60;;
10645;SDS011;5371;49.782;9.932;2023-12-20T03:04:13;0.60;;;0.60;;
10645;SDS011;5371;49.782;9.932;2023-12-20T03:06:40;0.60;;;0.60;;
10645;SDS011;5371;49.782;9.932;2023-12-20T03:09:07;1.53;;;0.70;;
10645;SDS011;5371;49.782;9.932;2023-12-20T03:11:34;0.77;;;0.77;;
10645;SDS011;5371;49.782;9.932;2023-12-20T03:14:02;1.37;;;0.77;;
10645;SDS011;5371;49.782;9.932;2023-12-20T03:16:29;0.77;;;0.70;;
10645;SDS011;5371;49.782;9.932;2023-12-20T03:18:58;0.70;;;0.70;;
10645;SDS011;5371;49.782;9.932;2023-12-20T03:21:25;0.50;;;0.50;;
10645;SDS011;5371;49.782;9.932;2023-12-20T03:23:52;1.00;;;0.57;;
10645;SDS011;5371;49.782;9.932;2023-12-20T03:26:19;1.23;;;0.73;;
10645;SDS011;5371;49.782;9.932;2023-12-20T03:28:47;0.60;;;0.60;;
10645;SDS011;5371;49.782;9.932;2023-12-20T03:31:16;0.77;;;0.70;;
10645;SDS011;5371;49.782;9.932;2023-12-20T03:33:43;0.70;;;0.70;;
10645;SDS011;5371;49.782;9.932;2023-12-20T03:36:10;0.70;;;0.70;;
10645;SDS011;5371;49.782;9.932;2023-12-20T03:38:37;0.90;;;0.60;;
10645;SDS011;5371;49.782;9.932;2023-12-20T03:41:04;0.83;;;0.60;;
10645;SDS011;5371;49.782;9.932;2023-12-20T03:43:31;0.90;;;0.63;;
10645;SDS011;5371;49.782;9.932;2023-12-20T03:45:58;0.50;;;0.50;;
10645;SDS011;5371;49.782;9.932;2023-12-20T03:48:26;0.60;;;0.60;;
10645;SDS011;5371;49.782;9.932;2023-12-20T03:50:53;1.03;;;0.67;;
10645;SDS011;5371;49.782;9.932;2023-12-20T03:53:20;0.77;;;0.70;;
10645;SDS011;5371;49.782;9.932;2023-12-20T03:55:48;1.00;;;0.60;;
10645;SDS011;5371;49.782;9.932;2023-12-20T03:58:14;0.87;;;0.70;;
10645;SDS011;5371;49.782;9.932;2023-12-20T04:00:41;0.60;;;0.50;;
10645;SDS011;5371;49.782;9.932;2023-12-20T04:03:08;0.73;;;0.70;;
10645;SDS011;5371;49.782;9.932;2023-12-20T04:05:39;0.73;;;0.70;;
10645;SDS011;5371;49.782;9.932;2023-12-20T04:08:06;0.73;;;0.70;;
10645;SDS011;5371;49.782;9.932;2023-12-20T04:10:33;0.90;;;0.80;;
10645;SDS011;5371;49.782;9.932;2023-12-20T04:13:00;0.70;;;0.70;;
10645;SDS011;5371;49.782;9.932;2023-12-20T04:15:27;0.90;;;0.70;;
10645;SDS011;5371;49.782;9.932;2023-12-20T04:17:54;0.90;;;0.80;;
10645;SDS011;5371;49.782;9.932;2023-12-20T04:20:21;0.67;;;0.67;;
10645;SDS011;5371;49.782;9.932;2023-12-20T04:22:49;0.80;;;0.80;;
10645;SDS011;5371;49.782;9.932;2023-12-20T04:25:16;2.30;;;0.83;;
10645;SDS011;5371;49.782;9.932;2023-12-20T04:27:43;0.80;;;0.70;;
10645;SDS011;5371;49.782;9.932;2023-12-20T04:30:10;1.00;;;0.70;;
10645;SDS011;5371;49.782;9.932;2023-12-20T04:32:37;0.93;;;0.80;;
10645;SDS011;5371;49.782;9.932;2023-12-20T04:35:05;0.97;;;0.80;;
10645;SDS011;5371;49.782;9.932;2023-12-20T04:37:33;1.43;;;0.90;;
10645;SDS011;5371;49.782;9.932;2023-12-20T04:40:02;0.70;;;0.70;;
10645;SDS011;5371;49.782;9.932;2023-12-20T04:42:30;2.93;;;0.70;;
10645;SDS011;5371;49.782;9.932;2023-12-20T04:44:57;1.00;;;0.80;;
10645;SDS011;5371;49.782;9.932;2023-12-20T04:47:24;0.80;;;0.80;;
10645;SDS011;5371;49.782;9.932;2023-12-20T04:49:51;2.27;;;0.70;;
10645;SDS011;5371;49.782;9.932;2023-12-20T04:52:18;0.77;;;0.70;;
10645;SDS011;5371;49.782;9.932;2023-12-20T04:54:45;1.00;;;0.90;;
10645;SDS011;5371;49.782;9.932;2023-12-20T04:57:13;0.80;;;0.80;;
10645;SDS011;5371;49.782;9.932;2023-12-20T04:59:40;2.13;;;0.90;;
10645;SDS011;5371;49.782;9.932;2023-12-20T05:02:07;0.87;;;0.87;;
10645;SDS011;5371;49.782;9.932;2023-12-20T05:04:34;1.77;;;1.00;;
10645;SDS011;5371;49.782;9.932;2023-12-20T05:07:01;1.10;;;1.00;;
10645;SDS011;5371;49.782;9.932;2023-12-20T05:09:30;1.00;;;0.90;;
10645;SDS011;5371;49.782;9.932;2023-12-20T05:11:57;1.13;;;1.03;;
10645;SDS011;5371;49.782;9.932;2023-12-20T05:14:26;1.20;;;1.10;;
10645;SDS011;5371;49.782;9.932;2023-12-20T05:16:53;1.70;;;1.00;;
10645;SDS011;5371;49.782;9.932;2023-12-20T05:19:20;2.90;;;1.20;;
10645;SDS011;5371;49.782;9.932;2023-12-20T05:21:47;1.73;;;1.00;;
10645;SDS011;5371;49.782;9.932;2023-12-20T05:24:14;1.10;;;1.00;;
10645;SDS011;5371;49.782;9.932;2023-12-20T05:26:41;1.20;;;1.10;;
10645;SDS011;5371;49.782;9.932;2023-12-20T05:29:08;1.97;;;1.10;;
10645;SDS011;5371;49.782;9.932;2023-12-20T05:31:36;1.30;;;1.10;;
10645;SDS011;5371;49.782;9.932;2023-12-20T05:34:03;1.33;;;1.10;;
10645;SDS011;5371;49.782;9.932;2023-12-20T05:36:30;1.13;;;1.03;;
10645;SDS011;5371;49.782;9.932;2023-12-20T05:38:57;1.17;;;1.07;;
10645;SDS011;5371;49.782;9.932;2023-12-20T05:41:24;1.50;;;1.40;;
10645;SDS011;5371;49.782;9.932;2023-12-20T05:43:51;1.20;;;1.10;;
10645;SDS011;5371;49.782;9.932;2023-12-20T05:46:18;1.23;;;1.10;;
10645;SDS011;5371;49.782;9.932;2023-12-20T05:48:48;3.10;;;1.40;;
10645;SDS011;5371;49.782;9.932;2023-12-20T05:51:14;1.20;;;1.10;;
10645;SDS011;5371;49.782;9.932;2023-12-20T05:53:41;1.60;;;1.27;;
10645;SDS011;5371;49.782;9.932;2023-12-20T05:56:09;1.40;;;1.30;;
10645;SDS011;5371;49.782;9.932;2023-12-20T05:58:37;1.50;;;1.40;;
10645;SDS011;5371;49.782;9.932;2023-12-20T06:01:05;2.07;;;1.60;;
10645;SDS011;5371;49.782;9.932;2023-12-20T06:03:33;1.60;;;1.40;;
10645;SDS011;5371;49.782;9.932;2023-12-20T06:06:05;2.17;;;1.40;;
10645;SDS011;5371;49.782;9.932;2023-12-20T06:08:33;1.70;;;1.47;;
10645;SDS011;5371;49.782;9.932;2023-12-20T06:11:00;2.23;;;1.60;;
10645;SDS011;5371;49.782;9.932;2023-12-20T06:13:27;4.67;;;1.70;;
10645;SDS011;5371;49.782;9.932;2023-12-20T06:15:54;1.77;;;1.50;;
10645;SDS011;5371;49.782;9.932;2023-12-20T06:18:21;2.03;;;1.50;;
10645;SDS011;5371;49.782;9.932;2023-12-20T06:20:48;1.77;;;1.50;;
10645;SDS011;5371;49.782;9.932;2023-12-20T06:23:17;1.63;;;1.53;;
10645;SDS011;5371;49.782;9.932;2023-12-20T06:25:44;3.30;;;1.60;;
10645;SDS011;5371;49.782;9.932;2023-12-20T06:28:11;1.73;;;1.40;;
10645;SDS011;5371;49.782;9.932;2023-12-20T06:30:39;3.13;;;1.70;;
10645;SDS011;5371;49.782;9.932;2023-12-20T06:33:07;2.20;;;1.80;;
10645;SDS011;5371;49.782;9.932;2023-12-20T06:35:35;2.40;;;2.00;;
10645;SDS011;5371;49.782;9.932;2023-12-20T06:38:05;2.53;;;1.90;;
10645;SDS011;5371;49.782;9.932;2023-12-20T06:40:33;2.47;;;1.67;;
10645;SDS011;5371;49.782;9.932;2023-12-20T06:43:00;2.80;;;1.77;;
10645;SDS011;5371;49.782;9.932;2023-12-20T06:45:29;2.13;;;1.90;;
10645;SDS011;5371;49.782;9.932;2023-12-20T06:47:56;2.50;;;2.30;;
10645;SDS011;5371;49.782;9.932;2023-12-20T06:50:23;3.10;;;2.10;;
10645;SDS011;5371;49.782;9.932;2023-12-20T06:52:50;2.80;;;2.50;;
10645;SDS011;5371;49.782;9.932;2023-12-20T06:55:18;3.10;;;2.13;;
10645;SDS011;5371;49.782;9.932;2023-12-20T06:57:46;3.37;;;2.20;;
10645;SDS011;5371;49.782;9.932;2023-12-20T07:00:13;2.93;;;2.23;;
10645;SDS011;5371;49.782;9.932;2023-12-20T07:02:41;3.27;;;2.97;;
10645;SDS011;5371;49.782;9.932;2023-12-20T07:05:08;2.97;;;2.43;;
10645;SDS011;5371;49.782;9.932;2023-12-20T07:07:35;3.07;;;2.10;;
10645;SDS011;5371;49.782;9.932;2023-12-20T07:10:02;3.57;;;2.30;;
10645;SDS011;5371;49.782;9.932;2023-12-20T07:12:29;2.57;;;2.23;;
10645;SDS011;5371;49.782;9.932;2023-12-20T07:14:58;4.00;;;2.23;;
10645;SDS011;5371;49.782;9.932;2023-12-20T07:17:24;2.30;;;2.10;;
10645;SDS011;5371;49.782;9.932;2023-12-20T07:19:51;2.50;;;2.17;;
10645;SDS011;5371;49.782;9.932;2023-12-20T07:22:19;3.10;;;2.43;;
10645;SDS011;5371;49.782;9.932;2023-12-20T07:24:46;2.67;;;2.20;;
10645;SDS011;5371;49.782;9.932;2023-12-20T07:27:13;3.33;;;2.30;;
10645;SDS011;5371;49.782;9.932;2023-12-20T07:29:40;3.30;;;2.30;;
10645;SDS011;5371;49.782;9.932;2023-12-20T07:32:08;3.17;;;2.40;;
10645;SDS011;5371;49.782;9.932;2023-12-20T07:34:35;6.17;;;2.40;;
10645;SDS011;5371;49.782;9.932;2023-12-20T07:37:02;3.40;;;2.30;;
10645;SDS011;5371;49.782;9.932;2023-12-20T07:39:29;3.37;;;1.87;;
10645;SDS011;5371;49.782;9.932;2023-12-20T07:41:57;5.03;;;2.40;;
10645;SDS011;5371;49.782;9.932;2023-12-20T07:44:24;3.60;;;2.57;;
10645;SDS011;5371;49.782;9.932;2023-12-20T07:46:51;4.50;;;2.53;;
10645;SDS011;5371;49.782;9.932;2023-12-20T07:49:20;3.07;;;2.40;;
10645;SDS011;5371;49.782;9.932;2023-12-20T07:51:47;5.17;;;2.60;;
10645;SDS011;5371;49.782;9.932;2023-12-20T07:54:13;8.10;;;2.60;;
10645;SDS011;5371;49.782;9.932;2023-12-20T07:56:41;4.80;;;2.37;;
10645;SDS011;5371;49.782;9.932;2023-12-20T07:59:09;5.67;;;2.70;;
10645;SDS011;5371;49.782;9.932;2023-12-20T08:01:36;7.03;;;2.37;;
10645;SDS011;5371;49.782;9.932;2023-12-20T08:04:03;4.63;;;2.20;;
10645;SDS011;5371;49.782;9.932;2023-12-20T08:06:31;4.90;;;2.40;;
10645;SDS011;5371;49.782;9.932;2023-12-20T08:08:58;5.77;;;2.07;;
10645;SDS011;5371;49.782;9.932;2023-12-20T08:11:25;5.00;;;2.20;;
10645;SDS011;5371;49.782;9.932;2023-12-20T08:13:52;4.73;;;2.17;;
10645;SDS011;5371;49.782;9.932;2023-12-20T08:16:19;6.20;;;2.23;;
10645;SDS011;5371;49.782;9.932;2023-12-20T08:18:47;6.40;;;2.27;;
10645;SDS011;5371;49.782;9.932;2023-12-20T08:21:14;4.53;;;2.13;;
10645;SDS011;5371;49.782;9.932;2023-12-20T08:23:42;4.20;;;2.00;;
10645;SDS011;5371;49.782;9.932;2023-12-20T08:26:10;4.10;;;1.93;;
10645;SDS011;5371;49.782;9.932;2023-12-20T08:28:37;4.13;;;1.60;;
10645;SDS011;5371;49.782;9.932;2023-12-20T08:31:04;3.93;;;2.10;;
10645;SDS011;5371;49.782;9.932;2023-12-20T08:33:31;5.77;;;2.20;;
10645;SDS011;5371;49.782;9.932;2023-12-20T08:35:58;4.07;;;1.80;;
10645;SDS011;5371;49.782;9.932;2023-12-20T08:38:25;5.43;;;1.67;;
10645;SDS011;5371;49.782;9.932;2023-12-20T08:40:53;4.00;;;1.90;;
10645;SDS011;5371;49.782;9.932;2023-12-20T08:43:20;6.63;;;1.73;;
10645;SDS011;5371;49.782;9.932;2023-12-20T08:45:47;3.77;;;1.97;;
10645;SDS011;5371;49.782;9.932;2023-12-20T08:48:14;3.30;;;1.70;;
10645;SDS011;5371;49.782;9.932;2023-12-20T08:50:41;4.33;;;1.73;;
10645;SDS011;5371;49.782;9.932;2023-12-20T08:53:09;4.90;;;1.93;;
10645;SDS011;5371;49.782;9.932;2023-12-20T08:55:36;3.87;;;1.60;;
10645;SDS011;5371;49.782;9.932;2023-12-20T08:58:04;4.70;;;1.80;;
10645;SDS011;5371;49.782;9.932;2023-12-20T09:00:33;3.97;;;1.60;;
10645;SDS011;5371;49.782;9.932;2023-12-20T09:03:00;4.30;;;1.60;;
10645;SDS011;5371;49.782;9.932;2023-12-20T09:05:27;4.40;;;1.67;;
10645;SDS011;5371;49.782;9.932;2023-12-20T09:07:55;3.33;;;1.60;;
10645;SDS011;5371;49.782;9.932;2023-12-20T09:10:22;3.97;;;1.50;;
10645;SDS011;5371;49.782;9.932;2023-12-20T09:12:49;3.70;;;1.70;;
10645;SDS011;5371;49.782;9.932;2023-12-20T09:15:18;4.80;;;1.70;;
10645;SDS011;5371;49.782;9.932;2023-12-20T09:17:45;2.63;;;1.40;;
10645;SDS011;5371;49.782;9.932;2023-12-20T09:20:12;5.33;;;2.00;;
10645;SDS011;5371;49.782;9.932;2023-12-20T09:22:39;6.07;;;1.73;;
10645;SDS011;5371;49.782;9.932;2023-12-20T09:25:07;6.10;;;1.80;;
10645;SDS011;5371;49.782;9.932;2023-12-20T09:27:35;5.60;;;1.70;;
10645;SDS011;5371;49.782;9.932;2023-12-20T09:30:02;4.57;;;1.77;;
10645;SDS011;5371;49.782;9.932;2023-12-20T09:32:33;7.03;;;1.70;;
10645;SDS011;5371;49.782;9.932;2023-12-20T09:35:00;4.07;;;1.50;;
10645;SDS011;5371;49.782;9.932;2023-12-20T09:37:27;4.23;;;1.73;;
10645;SDS011;5371;49.782;9.932;2023-12-20T09:39:54;4.33;;;1.50;;
10645;SDS011;5371;49.782;9.932;2023-12-20T09:42:23;4.13;;;1.50;;
10645;SDS011;5371;49.782;9.932;2023-12-20T09:44:55;2.97;;;1.60;;
10645;SDS011;5371;49.782;9.932;2023-12-20T09:47:23;2.53;;;1.40;;
10645;SDS011;5371;49.782;9.932;2023-12-20T09:49:52;7.17;;;2.00;;
10645;SDS011;5371;49.782;9.932;2023-12-20T09:52:19;5.63;;;1.60;;
10645;SDS011;5371;49.782;9.932;2023-12-20T09:54:47;3.97;;;1.60;;
10645;SDS011;5371;49.782;9.932;2023-12-20T09:57:16;5.70;;;1.73;;
10645;SDS011;5371;49.782;9.932;2023-12-20T09:59:43;5.27;;;1.53;;
10645;SDS011;5371;49.782;9.932;2023-12-20T10:02:12;5.43;;;1.90;;
10645;SDS011;5371;49.782;9.932;2023-12-20T10:04:40;3.60;;;1.50;;
10645;SDS011;5371;49.782;9.932;2023-12-20T10:07:14;3.20;;;1.50;;
10645;SDS011;5371;49.782;9.932;2023-12-20T10:09:42;5.43;;;1.50;;
10645;SDS011;5371;49.782;9.932;2023-12-20T10:12:09;6.87;;;1.70;;
10645;SDS011;5371;49.782;9.932;2023-12-20T10:14:37;4.97;;;1.53;;
10645;SDS011;5371;49.782;9.932;2023-12-20T10:17:05;7.23;;;1.50;;
10645;SDS011;5371;49.782;9.932;2023-12-20T10:19:33;4.30;;;1.47;;
10645;SDS011;5371;49.782;9.932;2023-12-20T10:22:00;4.27;;;1.40;;
10645;SDS011;5371;49.782;9.932;2023-12-20T10:24:29;5.37;;;1.40;;
10645;SDS011;5371;49.782;9.932;2023-12-20T10:27:03;8.13;;;1.70;;
10645;SDS011;5371;49.782;9.932;2023-12-20T10:29:33;4.10;;;1.40;;
10645;SDS011;5371;49.782;9.932;2023-12-20T10:32:05;5.23;;;1.60;;
10645;SDS011;5371;49.782;9.932;2023-12-20T10:34:48;4.07;;;1.43;;
10645;SDS011;5371;49.782;9.932;2023-12-20T10:37:15;3.27;;;1.20;;
10645;SDS011;5371;49.782;9.932;2023-12-20T10:39:44;5.77;;;1.60;;
10645;SDS011;5371;49.782;9.932;2023-12-20T10:42:15;5.07;;;1.57;;
10645;SDS011;5371;49.782;9.932;2023-12-20T10:44:42;6.50;;;1.50;;
10645;SDS011;5371;49.782;9.932;2023-12-20T10:47:09;5.53;;;1.67;;
10645;SDS011;5371;49.782;9.932;2023-12-20T10:49:37;5.43;;;1.77;;
10645;SDS011;5371;49.782;9.932;2023-12-20T10:52:05;4.07;;;1.70;;
10645;SDS011;5371;49.782;9.932;2023-12-20T10:54:33;5.93;;;1.60;;
10645;SDS011;5371;49.782;9.932;2023-12-20T10:57:01;4.83;;;1.40;;
10645;SDS011;5371;49.782;9.932;2023-12-20T10:59:30;4.83;;;1.67;;
10645;SDS011;5371;49.782;9.932;2023-12-20T11:02:00;4.77;;;1.60;;
10645;SDS011;5371;49.782;9.932;2023-12-20T11:04:32;5.70;;;1.93;;
10645;SDS011;5371;49.782;9.932;2023-12-20T11:07:05;6.53;;;1.70;;
10645;SDS011;5371;49.782;9.932;2023-12-20T11:09:36;5.90;;;2.03;;
10645;SDS011;5371;49.782;9.932;2023-12-20T11:12:09;3.43;;;1.50;;
10645;SDS011;5371;49.782;9.932;2023-12-20T11:14:40;3.37;;;1.47;;
10645;SDS011;5371;49.782;9.932;2023-12-20T11:17:09;3.47;;;1.67;;
10645;SDS011;5371;49.782;9.932;2023-12-20T11:19:43;6.03;;;2.10;;
10645;SDS011;5371;49.782;9.932;2023-12-20T11:22:31;7.57;;;1.60;;
10645;SDS011;5371;49.782;9.932;2023-12-20T11:24:59;6.17;;;1.70;;
10645;SDS011;5371;49.782;9.932;2023-12-20T11:27:33;5.67;;;1.80;;
10645;SDS011;5371;49.782;9.932;2023-12-20T11:30:02;7.20;;;1.97;;
10645;SDS011;5371;49.782;9.932;2023-12-20T11:32:33;3.87;;;1.60;;
10645;SDS011;5371;49.782;9.932;2023-12-20T11:35:01;4.57;;;2.00;;
10645;SDS011;5371;49.782;9.932;2023-12-20T11:37:42;5.20;;;1.60;;
10645;SDS011;5371;49.782;9.932;2023-12-20T11:40:11;5.33;;;1.80;;
10645;SDS011;5371;49.782;9.932;2023-12-20T11:42:41;4.37;;;1.73;;
10645;SDS011;5371;49.782;9.932;2023-12-20T11:45:09;6.03;;;1.77;;
10645;SDS011;5371;49.782;9.932;2023-12-20T11:47:35;4.33;;;1.97;;
10645;SDS011;5371;49.782;9.932;2023-12-20T11:50:03;8.40;;;1.77;;
10645;SDS011;5371;49.782;9.932;2023-12-20T11:52:30;5.73;;;1.60;;
10645;SDS011;5371;49.782;9.932;2023-12-20T11:54:57;5.27;;;1.70;;
10645;SDS011;5371;49.782;9.932;2023-12-20T11:57:25;7.00;;;1.80;;
10645;SDS011;5371;49.782;9.932;2023-12-20T11:59:53;7.00;;;1.63;;
10645;SDS011;5371;49.782;9.932;2023-12-20T12:02:20;8.30;;;1.80;;
10645;SDS011;5371;49.782;9.932;2023-12-20T12:04:48;5.57;;;1.60;;
10645;SDS011;5371;49.782;9.932;2023-12-20T12:07:16;2.77;;;1.60;;
10645;SDS011;5371;49.782;9.932;2023-12-20T12:09:43;3.97;;;1.70;;
10645;SDS011;5371;49.782;9.932;2023-12-20T12:12:10;6.80;;;1.70;;
10645;SDS011;5371;49.782;9.932;2023-12-20T12:14:38;3.53;;;1.60;;
10645;SDS011;5371;49.782;9.932;2023-12-20T12:17:11;7.50;;;1.80;;
10645;SDS011;5371;49.782;9.932;2023-12-20T12:19:38;5.77;;;1.67;;
10645;SDS011;5371;49.782;9.932;2023-12-20T12:22:05;5.47;;;1.83;;
10645;SDS011;5371;49.782;9.932;2023-12-20T12:24:35;5.90;;;1.53;;
10645;SDS011;5371;49.782;9.932;2023-12-20T12:27:03;6.17;;;1.97;;
10645;SDS011;5371;49.782;9.932;2023-12-20T12:29:32;4.10;;;1.60;;
10645;SDS011;5371;49.782;9.932;2023-12-20T12:31:59;8.33;;;1.80;;
10645;SDS011;5371;49.782;9.932;2023-12-20T12:34:28;6.17;;;1.60;;
10645;SDS011;5371;49.782;9.932;2023-12-20T12:36:55;6.03;;;1.80;;
10645;SDS011;5371;49.782;9.932;2023-12-20T12:39:22;7.40;;;1.90;;
10645;SDS011;5371;49.782;9.932;2023-12-20T12:41:50;5.83;;;1.60;;
10645;SDS011;5371;49.782;9.932;2023-12-20T12:44:17;6.03;;;1.80;;
10645;SDS011;5371;49.782;9.932;2023-12-20T12:46:44;6.60;;;1.80;;
10645;SDS011;5371;49.782;9.932;2023-12-20T12:49:12;6.73;;;1.73;;
10645;SDS011;5371;49.782;9.932;2023-12-20T12:51:41;7.67;;;2.00;;
10645;SDS011;5371;49.782;9.932;2023-12-20T12:54:09;5.83;;;1.90;;
10645;SDS011;5371;49.782;9.932;2023-12-20T12:56:38;4.47;;;1.50;;
10645;SDS011;5371;49.782;9.932;2023-12-20T12:59:05;6.03;;;1.80;;
10645;SDS011;5371;49.782;9.932;2023-12-20T13:01:32;6.13;;;1.60;;
10645;SDS011;5371;49.782;9.932;2023-12-20T13:03:59;5.07;;;1.73;;
10645;SDS011;5371;49.782;9.932;2023-12-20T13:06:28;7.07;;;2.03;;
10645;SDS011;5371;49.782;9.932;2023-12-20T13:08:57;6.10;;;1.70;;
10645;SDS011;5371;49.782;9.932;2023-12-20T13:11:24;5.50;;;1.60;;
10645;SDS011;5371;49.782;9.932;2023-12-20T13:13:51;6.07;;;2.27;;
10645;SDS011;5371;49.782;9.932;2023-12-20T13:16:18;7.80;;;1.80;;
10645;SDS011;5371;49.782;9.932;2023-12-20T13:18:45;5.47;;;1.70;;
10645;SDS011;5371;49.782;9.932;2023-12-20T13:21:12;7.03;;;1.77;;
10645;SDS011;5371;49.782;9.932;2023-12-20T13:23:39;7.03;;;1.70;;
10645;SDS011;5371;49.782;9.932;2023-12-20T13:26:08;4.90;;;1.90;;
10645;SDS011;5371;49.782;9.932;2023-12-20T13:28:35;9.37;;;2.00;;
10645;SDS011;5371;49.782;9.932;2023-12-20T13:31:03;14.60;;;2.53;;
10645;SDS011;5371;49.782;9.932;2023-12-20T13:33:30;5.53;;;1.53;;
10645;SDS011;5371;49.782;9.932;2023-12-20T13:35:57;5.77;;;1.80;;
10645;SDS011;5371;49.782;9.932;2023-12-20T13:38:25;8.33;;;1.93;;
10645;SDS011;5371;49.782;9.932;2023-12-20T13:40:52;5.87;;;1.90;;
10645;SDS011;5371;49.782;9.932;2023-12-20T13:43:20;9.70;;;2.00;;
10645;SDS011;5371;49.782;9.932;2023-12-20T13:45:48;6.50;;;2.10;;
10645;SDS011;5371;49.782;9.932;2023-12-20T13:48:15;5.33;;;1.77;;
10645;SDS011;5371;49.782;9.932;2023-12-20T13:50:42;6.03;;;2.20;;
10645;SDS011;5371;49.782;9.932;2023-12-20T13:53:09;3.33;;;1.93;;
10645;SDS011;5371;49.782;9.932;2023-12-20T13:55:36;6.57;;;1.80;;
10645;SDS011;5371;49.782;9.932;2023-12-20T13:58:03;5.67;;;1.90;;
10645;SDS011;5371;49.782;9.932;2023-12-20T14:00:32;6.80;;;2.07;;
10645;SDS011;5371;49.782;9.932;2023-12-20T14:02:59;4.57;;;1.97;;
10645;SDS011;5371;49.782;9.932;2023-12-20T14:05:27;5.43;;;1.97;;
10645;SDS011;5371;49.782;9.932;2023-12-20T14:07:54;3.43;;;1.47;;
10645;SDS011;5371;49.782;9.932;2023-12-20T14:10:23;7.20;;;1.60;;
10645;SDS011;5371;49.782;9.932;2023-12-20T14:12:52;5.37;;;1.93;;
10645;SDS011;5371;49.782;9.932;2023-12-20T14:15:19;6.17;;;2.10;;
10645;SDS011;5371;49.782;9.932;2023-12-20T14:17:51;4.77;;;1.60;;
10645;SDS011;5371;49.782;9.932;2023-12-20T14:20:18;6.57;;;1.97;;
10645;SDS011;5371;49.782;9.932;2023-12-20T14:22:45;5.63;;;2.13;;
10645;SDS011;5371;49.782;9.932;2023-12-20T14:25:13;3.80;;;1.87;;
10645;SDS011;5371;49.782;9.932;2023-12-20T14:27:41;5.37;;;2.20;;
10645;SDS011;5371;49.782;9.932;2023-12-20T14:30:09;7.30;;;1.83;;
10645;SDS011;5371;49.782;9.932;2023-12-20T14:32:37;7.23;;;2.13;;
10645;SDS011;5371;49.782;9.932;2023-12-20T14:35:06;5.33;;;2.40;;
10645;SDS011;5371;49.782;9.932;2023-12-20T14:37:34;6.73;;;2.07;;
10645;SDS011;5371;49.782;9.932;2023-12-20T14:40:05;6.33;;;2.00;;
10645;SDS011;5371;49.782;9.932;2023-12-20T14:42:36;6.23;;;1.97;;
10645;SDS011;5371;49.782;9.932;2023-12-20T14:45:04;4.57;;;1.83;;
10645;SDS011;5371;49.782;9.932;2023-12-20T14:47:32;7.50;;;2.23;;
10645;SDS011;5371;49.782;9.932;2023-12-20T14:49:59;6.10;;;2.20;;
10645;SDS011;5371;49.782;9.932;2023-12-20T14:52:29;5.37;;;1.87;;
10645;SDS011;5371;49.782;9.932;2023-12-20T14:54:56;7.10;;;2.17;;
10645;SDS011;5371;49.782;9.932;2023-12-20T14:57:24;5.17;;;2.03;;
10645;SDS011;5371;49.782;9.932;2023-12-20T14:59:51;6.33;;;2.03;;
10645;SDS011;5371;49.782;9.932;2023-12-20T15:02:19;4.70;;;2.10;;
10645;SDS011;5371;49.782;9.932;2023-12-20T15:04:46;4.53;;;1.80;;